sensor_id;sensor_type;location;lat;lon;timestamp;P1;durP1;ratioP1;P2;durP2;ratioP2
4323;SDS011;2175;51.018;6.994;2024-03-06T00:01:30;41.27;;;26.30;;
4323;SDS011;2175;51.018;6.994;2024-03-06T00:03:56;39.03;;;26.73;;
4323;SDS011;2175;51.018;6.994;2024-03-06T00:06:23;39.40;;;27.37;;
4323;SDS011;2175;51.018;6.994;2024-03-06T00:08:50;41.73;;;26.87;;
4323;SDS011;2175;51.018;6.994;2024-03-06T00:11:16;41.80;;;27.70;;
4323;SDS011;2175;51.018;6.994;2024-03-06T00:13:42;41.97;;;27.63;;
4323;SDS011;2175;51.018;6.994;2024-03-06T00:16:09;44.00;;;27.60;;
4323;SDS011;2175;51.018;6.994;2024-03-06T00:18:35;41.53;;;26.53;;
4323;SDS011;2175;51.018;6.994;2024-03-06T00:21:01;44.80;;;28.53;;
4323;SDS011;2175;51.018;6.994;2024-03-06T00:23:27;43.93;;;27.37;;
4323;SDS011;2175;51.018;6.994;2024-03-06T00:25:53;41.93;;;27.73;;
4323;SDS011;2175;51.018;6.994;2024-03-06T00:28:19;42.10;;;26.83;;
4323;SDS011;2175;51.018;6.994;2024-03-06T00:30:45;39.80;;;25.33;;
4323;SDS011;2175;51.018;6.994;2024-03-06T00:33:11;39.73;;;25.77;;
4323;SDS011;2175;51.018;6.994;2024-03-06T00:35:37;48.17;;;30.40;;
4323;SDS011;2175;51.018;6.994;2024-03-06T00:38:03;41.83;;;27.10;;
4323;SDS011;2175;51.018;6.994;2024-03-06T00:40:29;40.30;;;26.70;;
4323;SDS011;2175;51.018;6.994;2024-03-06T00:42:56;44.07;;;28.00;;
4323;SDS011;2175;51.018;6.994;2024-03-06T00:45:22;47.70;;;29.33;;
4323;SDS011;2175;51.018;6.994;2024-03-06T00:47:48;43.90;;;26.77;;
4323;SDS011;2175;51.018;6.994;2024-03-06T00:50:14;45.27;;;29.53;;
4323;SDS011;2175;51.018;6.994;2024-03-06T00:52:42;47.50;;;30.10;;
4323;SDS011;2175;51.018;6.994;2024-03-06T00:55:09;48.03;;;31.90;;
4323;SDS011;2175;51.018;6.994;2024-03-06T00:57:35;47.50;;;30.40;;
4323;SDS011;2175;51.018;6.994;2024-03-06T01:00:02;48.07;;;29.70;;
4323;SDS011;2175;51.018;6.994;2024-03-06T01:02:35;51.43;;;31.83;;
4323;SDS011;2175;51.018;6.994;2024-03-06T01:05:01;51.17;;;31.10;;
4323;SDS011;2175;51.018;6.994;2024-03-06T01:07:28;48.73;;;31.60;;
4323;SDS011;2175;51.018;6.994;2024-03-06T01:09:55;51.43;;;31.70;;
4323;SDS011;2175;51.018;6.994;2024-03-06T01:12:22;49.53;;;30.90;;
4323;SDS011;2175;51.018;6.994;2024-03-06T01:14:48;50.20;;;32.00;;
4323;SDS011;2175;51.018;6.994;2024-03-06T01:17:14;57.40;;;33.00;;
4323;SDS011;2175;51.018;6.994;2024-03-06T01:19:41;46.93;;;28.20;;
4323;SDS011;2175;51.018;6.994;2024-03-06T01:22:10;43.10;;;28.93;;
4323;SDS011;2175;51.018;6.994;2024-03-06T01:24:36;48.17;;;28.33;;
4323;SDS011;2175;51.018;6.994;2024-03-06T01:27:02;46.93;;;28.50;;
4323;SDS011;2175;51.018;6.994;2024-03-06T01:29:28;48.10;;;28.83;;
4323;SDS011;2175;51.018;6.994;2024-03-06T01:31:54;46.30;;;29.37;;
4323;SDS011;2175;51.018;6.994;2024-03-06T01:34:20;50.00;;;30.40;;
4323;SDS011;2175;51.018;6.994;2024-03-06T01:36:47;53.53;;;29.83;;
4323;SDS011;2175;51.018;6.994;2024-03-06T01:39:13;53.03;;;32.20;;
4323;SDS011;2175;51.018;6.994;2024-03-06T01:41:49;49.93;;;30.83;;
4323;SDS011;2175;51.018;6.994;2024-03-06T01:44:15;45.67;;;29.30;;
4323;SDS011;2175;51.018;6.994;2024-03-06T01:46:42;48.57;;;29.63;;
4323;SDS011;2175;51.018;6.994;2024-03-06T01:49:08;46.10;;;29.27;;
4323;SDS011;2175;51.018;6.994;2024-03-06T01:51:35;41.77;;;26.90;;
4323;SDS011;2175;51.018;6.994;2024-03-06T01:54:01;40.13;;;26.03;;
4323;SDS011;2175;51.018;6.994;2024-03-06T01:56:34;40.27;;;25.30;;
4323;SDS011;2175;51.018;6.994;2024-03-06T01:59:02;44.00;;;27.30;;
4323;SDS011;2175;51.018;6.994;2024-03-06T02:01:29;41.97;;;26.07;;
4323;SDS011;2175;51.018;6.994;2024-03-06T02:03:55;40.00;;;25.97;;
4323;SDS011;2175;51.018;6.994;2024-03-06T02:06:21;50.13;;;31.87;;
4323;SDS011;2175;51.018;6.994;2024-03-06T02:08:48;52.30;;;32.00;;
4323;SDS011;2175;51.018;6.994;2024-03-06T02:11:14;43.87;;;28.00;;
4323;SDS011;2175;51.018;6.994;2024-03-06T02:13:43;46.77;;;27.10;;
4323;SDS011;2175;51.018;6.994;2024-03-06T02:16:09;42.10;;;26.57;;
4323;SDS011;2175;51.018;6.994;2024-03-06T02:18:36;42.87;;;28.87;;
4323;SDS011;2175;51.018;6.994;2024-03-06T02:21:02;48.70;;;28.23;;
4323;SDS011;2175;51.018;6.994;2024-03-06T02:23:29;49.30;;;27.93;;
4323;SDS011;2175;51.018;6.994;2024-03-06T02:25:56;43.70;;;28.43;;
4323;SDS011;2175;51.018;6.994;2024-03-06T02:28:22;46.10;;;27.93;;
4323;SDS011;2175;51.018;6.994;2024-03-06T02:30:51;39.93;;;26.23;;
4323;SDS011;2175;51.018;6.994;2024-03-06T02:33:17;48.17;;;27.30;;
4323;SDS011;2175;51.018;6.994;2024-03-06T02:35:43;41.63;;;25.93;;
4323;SDS011;2175;51.018;6.994;2024-03-06T02:38:11;49.83;;;28.93;;
4323;SDS011;2175;51.018;6.994;2024-03-06T02:40:37;51.50;;;28.60;;
4323;SDS011;2175;51.018;6.994;2024-03-06T02:43:03;50.00;;;29.90;;
4323;SDS011;2175;51.018;6.994;2024-03-06T02:45:29;44.90;;;28.83;;
4323;SDS011;2175;51.018;6.994;2024-03-06T02:47:55;47.30;;;28.97;;
4323;SDS011;2175;51.018;6.994;2024-03-06T02:50:21;54.40;;;31.70;;
4323;SDS011;2175;51.018;6.994;2024-03-06T02:52:48;51.20;;;29.90;;
4323;SDS011;2175;51.018;6.994;2024-03-06T02:55:16;43.00;;;28.07;;
4323;SDS011;2175;51.018;6.994;2024-03-06T02:57:42;49.33;;;29.97;;
4323;SDS011;2175;51.018;6.994;2024-03-06T03:00:08;46.43;;;29.27;;
4323;SDS011;2175;51.018;6.994;2024-03-06T03:02:38;49.03;;;30.27;;
4323;SDS011;2175;51.018;6.994;2024-03-06T03:05:05;48.60;;;29.10;;
4323;SDS011;2175;51.018;6.994;2024-03-06T03:07:31;50.90;;;31.70;;
4323;SDS011;2175;51.018;6.994;2024-03-06T03:09:57;50.07;;;30.60;;
4323;SDS011;2175;51.018;6.994;2024-03-06T03:12:23;48.87;;;28.57;;
4323;SDS011;2175;51.018;6.994;2024-03-06T03:14:49;48.20;;;29.27;;
4323;SDS011;2175;51.018;6.994;2024-03-06T03:17:15;48.77;;;28.50;;
4323;SDS011;2175;51.018;6.994;2024-03-06T03:19:41;55.00;;;31.80;;
4323;SDS011;2175;51.018;6.994;2024-03-06T03:22:07;50.17;;;31.07;;
4323;SDS011;2175;51.018;6.994;2024-03-06T03:24:34;56.73;;;31.33;;
4323;SDS011;2175;51.018;6.994;2024-03-06T03:27:02;52.60;;;32.30;;
4323;SDS011;2175;51.018;6.994;2024-03-06T03:29:28;60.83;;;34.23;;
4323;SDS011;2175;51.018;6.994;2024-03-06T03:31:54;53.20;;;33.63;;
4323;SDS011;2175;51.018;6.994;2024-03-06T03:34:20;55.67;;;33.10;;
4323;SDS011;2175;51.018;6.994;2024-03-06T03:36:46;59.50;;;34.23;;
4323;SDS011;2175;51.018;6.994;2024-03-06T03:39:13;49.70;;;31.10;;
4323;SDS011;2175;51.018;6.994;2024-03-06T03:41:46;51.70;;;31.07;;
4323;SDS011;2175;51.018;6.994;2024-03-06T03:44:15;44.20;;;28.87;;
4323;SDS011;2175;51.018;6.994;2024-03-06T03:46:42;54.20;;;30.97;;
4323;SDS011;2175;51.018;6.994;2024-03-06T03:49:08;44.50;;;30.07;;
4323;SDS011;2175;51.018;6.994;2024-03-06T03:51:35;53.10;;;31.60;;
4323;SDS011;2175;51.018;6.994;2024-03-06T03:54:02;51.27;;;31.50;;
4323;SDS011;2175;51.018;6.994;2024-03-06T03:56:28;52.80;;;32.27;;
4323;SDS011;2175;51.018;6.994;2024-03-06T03:58:54;50.53;;;31.90;;
4323;SDS011;2175;51.018;6.994;2024-03-06T04:01:20;50.43;;;31.93;;
4323;SDS011;2175;51.018;6.994;2024-03-06T04:03:48;49.43;;;31.20;;
4323;SDS011;2175;51.018;6.994;2024-03-06T04:06:14;48.23;;;31.83;;
4323;SDS011;2175;51.018;6.994;2024-03-06T04:08:40;49.00;;;30.70;;
4323;SDS011;2175;51.018;6.994;2024-03-06T04:11:06;47.90;;;30.90;;
4323;SDS011;2175;51.018;6.994;2024-03-06T04:13:35;51.97;;;31.13;;
4323;SDS011;2175;51.018;6.994;2024-03-06T04:16:01;47.40;;;29.47;;
4323;SDS011;2175;51.018;6.994;2024-03-06T04:18:28;48.17;;;30.30;;
4323;SDS011;2175;51.018;6.994;2024-03-06T04:20:54;52.00;;;29.97;;
4323;SDS011;2175;51.018;6.994;2024-03-06T04:23:20;47.60;;;28.60;;
4323;SDS011;2175;51.018;6.994;2024-03-06T04:25:46;45.20;;;29.23;;
4323;SDS011;2175;51.018;6.994;2024-03-06T04:28:12;47.70;;;29.63;;
4323;SDS011;2175;51.018;6.994;2024-03-06T04:30:38;46.30;;;28.20;;
4323;SDS011;2175;51.018;6.994;2024-03-06T04:33:04;42.63;;;27.67;;
4323;SDS011;2175;51.018;6.994;2024-03-06T04:35:30;45.20;;;28.20;;
4323;SDS011;2175;51.018;6.994;2024-03-06T04:37:56;47.57;;;28.83;;
4323;SDS011;2175;51.018;6.994;2024-03-06T04:40:22;51.53;;;29.90;;
4323;SDS011;2175;51.018;6.994;2024-03-06T04:42:50;49.50;;;30.40;;
4323;SDS011;2175;51.018;6.994;2024-03-06T04:45:16;50.87;;;28.87;;
4323;SDS011;2175;51.018;6.994;2024-03-06T04:47:42;46.40;;;28.80;;
4323;SDS011;2175;51.018;6.994;2024-03-06T04:50:12;47.00;;;29.80;;
4323;SDS011;2175;51.018;6.994;2024-03-06T04:52:39;48.20;;;29.70;;
4323;SDS011;2175;51.018;6.994;2024-03-06T04:55:06;52.30;;;30.40;;
4323;SDS011;2175;51.018;6.994;2024-03-06T04:57:32;58.17;;;33.27;;
4323;SDS011;2175;51.018;6.994;2024-03-06T04:59:58;44.20;;;28.53;;
4323;SDS011;2175;51.018;6.994;2024-03-06T05:02:24;43.57;;;27.90;;
4323;SDS011;2175;51.018;6.994;2024-03-06T05:04:53;53.37;;;32.10;;
4323;SDS011;2175;51.018;6.994;2024-03-06T05:07:19;58.20;;;31.20;;
4323;SDS011;2175;51.018;6.994;2024-03-06T05:09:45;51.77;;;31.40;;
4323;SDS011;2175;51.018;6.994;2024-03-06T05:12:11;51.63;;;29.60;;
4323;SDS011;2175;51.018;6.994;2024-03-06T05:14:37;49.20;;;30.40;;
4323;SDS011;2175;51.018;6.994;2024-03-06T05:17:03;50.13;;;31.03;;
4323;SDS011;2175;51.018;6.994;2024-03-06T05:19:28;52.13;;;31.37;;
4323;SDS011;2175;51.018;6.994;2024-03-06T05:21:57;48.57;;;30.60;;
4323;SDS011;2175;51.018;6.994;2024-03-06T05:24:23;49.53;;;30.90;;
4323;SDS011;2175;51.018;6.994;2024-03-06T05:26:49;46.03;;;28.90;;
4323;SDS011;2175;51.018;6.994;2024-03-06T05:29:15;45.70;;;28.20;;
4323;SDS011;2175;51.018;6.994;2024-03-06T05:31:41;50.37;;;29.60;;
4323;SDS011;2175;51.018;6.994;2024-03-06T05:34:07;48.20;;;29.30;;
4323;SDS011;2175;51.018;6.994;2024-03-06T05:36:33;45.13;;;29.30;;
4323;SDS011;2175;51.018;6.994;2024-03-06T05:38:59;49.03;;;28.40;;
4323;SDS011;2175;51.018;6.994;2024-03-06T05:41:25;51.03;;;31.20;;
4323;SDS011;2175;51.018;6.994;2024-03-06T05:43:51;47.90;;;29.30;;
4323;SDS011;2175;51.018;6.994;2024-03-06T05:46:17;46.13;;;29.67;;
4323;SDS011;2175;51.018;6.994;2024-03-06T05:48:44;40.53;;;27.97;;
4323;SDS011;2175;51.018;6.994;2024-03-06T05:51:10;50.93;;;29.67;;
4323;SDS011;2175;51.018;6.994;2024-03-06T05:53:37;44.30;;;28.57;;
4323;SDS011;2175;51.018;6.994;2024-03-06T05:56:07;47.97;;;30.00;;
4323;SDS011;2175;51.018;6.994;2024-03-06T05:58:33;45.67;;;26.20;;
4323;SDS011;2175;51.018;6.994;2024-03-06T06:01:03;47.10;;;28.00;;
4323;SDS011;2175;51.018;6.994;2024-03-06T06:03:29;51.63;;;30.53;;
4323;SDS011;2175;51.018;6.994;2024-03-06T06:05:55;42.37;;;27.43;;
4323;SDS011;2175;51.018;6.994;2024-03-06T06:08:22;44.13;;;27.70;;
4323;SDS011;2175;51.018;6.994;2024-03-06T06:10:49;44.70;;;27.53;;
4323;SDS011;2175;51.018;6.994;2024-03-06T06:13:17;42.43;;;26.17;;
4323;SDS011;2175;51.018;6.994;2024-03-06T06:15:43;40.03;;;26.00;;
4323;SDS011;2175;51.018;6.994;2024-03-06T06:18:09;42.87;;;25.90;;
4323;SDS011;2175;51.018;6.994;2024-03-06T06:20:35;46.00;;;27.30;;
4323;SDS011;2175;51.018;6.994;2024-03-06T06:23:01;45.40;;;26.93;;
4323;SDS011;2175;51.018;6.994;2024-03-06T06:25:27;43.33;;;26.57;;
4323;SDS011;2175;51.018;6.994;2024-03-06T06:27:53;43.60;;;26.50;;
4323;SDS011;2175;51.018;6.994;2024-03-06T06:30:19;41.60;;;26.20;;
4323;SDS011;2175;51.018;6.994;2024-03-06T06:32:45;41.80;;;25.33;;
4323;SDS011;2175;51.018;6.994;2024-03-06T06:35:11;40.07;;;26.10;;
4323;SDS011;2175;51.018;6.994;2024-03-06T06:37:38;44.33;;;26.90;;
4323;SDS011;2175;51.018;6.994;2024-03-06T06:40:07;37.10;;;23.90;;
4323;SDS011;2175;51.018;6.994;2024-03-06T06:42:34;36.93;;;24.40;;
4323;SDS011;2175;51.018;6.994;2024-03-06T06:45:01;34.67;;;24.03;;
4323;SDS011;2175;51.018;6.994;2024-03-06T06:47:27;40.60;;;25.07;;
4323;SDS011;2175;51.018;6.994;2024-03-06T06:49:54;36.67;;;24.00;;
4323;SDS011;2175;51.018;6.994;2024-03-06T06:52:20;37.60;;;24.17;;
4323;SDS011;2175;51.018;6.994;2024-03-06T06:54:46;33.53;;;23.10;;
4323;SDS011;2175;51.018;6.994;2024-03-06T06:57:11;35.57;;;22.33;;
4323;SDS011;2175;51.018;6.994;2024-03-06T06:59:37;37.43;;;24.33;;
4323;SDS011;2175;51.018;6.994;2024-03-06T07:02:04;37.70;;;21.87;;
4323;SDS011;2175;51.018;6.994;2024-03-06T07:04:31;33.87;;;21.40;;
4323;SDS011;2175;51.018;6.994;2024-03-06T07:06:57;32.47;;;22.13;;
4323;SDS011;2175;51.018;6.994;2024-03-06T07:09:23;32.63;;;19.87;;
4323;SDS011;2175;51.018;6.994;2024-03-06T07:11:50;31.97;;;20.70;;
4323;SDS011;2175;51.018;6.994;2024-03-06T07:14:16;29.90;;;21.33;;
4323;SDS011;2175;51.018;6.994;2024-03-06T07:16:42;31.47;;;21.80;;
4323;SDS011;2175;51.018;6.994;2024-03-06T07:19:08;30.47;;;19.93;;
4323;SDS011;2175;51.018;6.994;2024-03-06T07:21:34;31.27;;;21.10;;
4323;SDS011;2175;51.018;6.994;2024-03-06T07:24:00;32.17;;;21.47;;
4323;SDS011;2175;51.018;6.994;2024-03-06T07:26:26;33.80;;;19.80;;
4323;SDS011;2175;51.018;6.994;2024-03-06T07:28:55;30.43;;;20.90;;
4323;SDS011;2175;51.018;6.994;2024-03-06T07:31:21;27.43;;;18.83;;
4323;SDS011;2175;51.018;6.994;2024-03-06T07:33:46;27.50;;;18.33;;
4323;SDS011;2175;51.018;6.994;2024-03-06T07:36:12;28.50;;;18.03;;
4323;SDS011;2175;51.018;6.994;2024-03-06T07:38:38;24.87;;;17.90;;
4323;SDS011;2175;51.018;6.994;2024-03-06T07:41:04;27.30;;;18.63;;
4323;SDS011;2175;51.018;6.994;2024-03-06T07:43:31;24.70;;;18.63;;
4323;SDS011;2175;51.018;6.994;2024-03-06T07:45:57;29.63;;;19.87;;
4323;SDS011;2175;51.018;6.994;2024-03-06T07:48:23;27.40;;;18.37;;
4323;SDS011;2175;51.018;6.994;2024-03-06T07:50:49;23.90;;;18.10;;
4323;SDS011;2175;51.018;6.994;2024-03-06T07:53:15;28.97;;;18.33;;
4323;SDS011;2175;51.018;6.994;2024-03-06T07:55:41;26.93;;;18.67;;
4323;SDS011;2175;51.018;6.994;2024-03-06T07:58:08;23.63;;;16.87;;
4323;SDS011;2175;51.018;6.994;2024-03-06T08:00:35;24.77;;;17.40;;
4323;SDS011;2175;51.018;6.994;2024-03-06T08:03:01;25.97;;;16.67;;
4323;SDS011;2175;51.018;6.994;2024-03-06T08:05:30;28.97;;;16.93;;
4323;SDS011;2175;51.018;6.994;2024-03-06T08:07:58;22.57;;;15.17;;
4323;SDS011;2175;51.018;6.994;2024-03-06T08:10:24;22.60;;;16.13;;
4323;SDS011;2175;51.018;6.994;2024-03-06T08:12:50;21.40;;;15.47;;
4323;SDS011;2175;51.018;6.994;2024-03-06T08:15:16;19.57;;;14.53;;
4323;SDS011;2175;51.018;6.994;2024-03-06T08:17:43;20.93;;;14.80;;
4323;SDS011;2175;51.018;6.994;2024-03-06T08:20:09;22.53;;;16.57;;
4323;SDS011;2175;51.018;6.994;2024-03-06T08:22:39;28.43;;;17.03;;
4323;SDS011;2175;51.018;6.994;2024-03-06T08:25:06;29.07;;;17.50;;
4323;SDS011;2175;51.018;6.994;2024-03-06T08:27:33;31.20;;;18.17;;
4323;SDS011;2175;51.018;6.994;2024-03-06T08:29:59;26.97;;;17.60;;
4323;SDS011;2175;51.018;6.994;2024-03-06T08:32:25;27.07;;;17.23;;
4323;SDS011;2175;51.018;6.994;2024-03-06T08:34:52;26.90;;;16.90;;
4323;SDS011;2175;51.018;6.994;2024-03-06T08:37:18;33.77;;;20.10;;
4323;SDS011;2175;51.018;6.994;2024-03-06T08:39:44;53.53;;;26.47;;
4323;SDS011;2175;51.018;6.994;2024-03-06T08:42:10;57.07;;;27.30;;
4323;SDS011;2175;51.018;6.994;2024-03-06T08:44:37;51.73;;;27.73;;
4323;SDS011;2175;51.018;6.994;2024-03-06T08:47:03;44.43;;;26.60;;
4323;SDS011;2175;51.018;6.994;2024-03-06T08:49:29;44.60;;;25.10;;
4323;SDS011;2175;51.018;6.994;2024-03-06T08:51:55;40.53;;;24.93;;
4323;SDS011;2175;51.018;6.994;2024-03-06T08:54:22;36.37;;;23.07;;
4323;SDS011;2175;51.018;6.994;2024-03-06T08:56:48;38.07;;;23.70;;
4323;SDS011;2175;51.018;6.994;2024-03-06T08:59:14;32.80;;;20.67;;
4323;SDS011;2175;51.018;6.994;2024-03-06T09:01:40;34.47;;;21.00;;
4323;SDS011;2175;51.018;6.994;2024-03-06T09:04:06;29.30;;;19.63;;
4323;SDS011;2175;51.018;6.994;2024-03-06T09:06:32;33.37;;;21.17;;
4323;SDS011;2175;51.018;6.994;2024-03-06T09:08:58;31.57;;;21.23;;
4323;SDS011;2175;51.018;6.994;2024-03-06T09:11:24;33.50;;;20.63;;
4323;SDS011;2175;51.018;6.994;2024-03-06T09:13:50;29.97;;;20.17;;
4323;SDS011;2175;51.018;6.994;2024-03-06T09:16:16;34.33;;;21.40;;
4323;SDS011;2175;51.018;6.994;2024-03-06T09:18:43;31.53;;;20.23;;
4323;SDS011;2175;51.018;6.994;2024-03-06T09:21:09;32.43;;;20.83;;
4323;SDS011;2175;51.018;6.994;2024-03-06T09:23:35;32.03;;;20.13;;
4323;SDS011;2175;51.018;6.994;2024-03-06T09:26:01;32.47;;;21.60;;
4323;SDS011;2175;51.018;6.994;2024-03-06T09:28:27;29.77;;;20.70;;
4323;SDS011;2175;51.018;6.994;2024-03-06T09:30:53;33.03;;;22.23;;
4323;SDS011;2175;51.018;6.994;2024-03-06T09:33:19;34.90;;;21.80;;
4323;SDS011;2175;51.018;6.994;2024-03-06T09:35:45;38.20;;;22.80;;
4323;SDS011;2175;51.018;6.994;2024-03-06T09:38:11;33.17;;;22.40;;
4323;SDS011;2175;51.018;6.994;2024-03-06T09:40:40;39.10;;;23.70;;
4323;SDS011;2175;51.018;6.994;2024-03-06T09:43:07;33.03;;;23.37;;
4323;SDS011;2175;51.018;6.994;2024-03-06T09:45:33;30.60;;;21.70;;
4323;SDS011;2175;51.018;6.994;2024-03-06T09:48:00;34.87;;;23.63;;
4323;SDS011;2175;51.018;6.994;2024-03-06T09:50:26;38.00;;;23.03;;
4323;SDS011;2175;51.018;6.994;2024-03-06T09:52:55;34.10;;;23.10;;
4323;SDS011;2175;51.018;6.994;2024-03-06T09:55:21;37.90;;;24.80;;
4323;SDS011;2175;51.018;6.994;2024-03-06T09:57:47;38.10;;;24.17;;
4323;SDS011;2175;51.018;6.994;2024-03-06T10:00:15;34.87;;;23.20;;
4323;SDS011;2175;51.018;6.994;2024-03-06T10:02:44;40.00;;;24.80;;
4323;SDS011;2175;51.018;6.994;2024-03-06T10:05:21;35.77;;;23.93;;
4323;SDS011;2175;51.018;6.994;2024-03-06T10:07:47;34.53;;;23.13;;
4323;SDS011;2175;51.018;6.994;2024-03-06T10:10:14;42.13;;;26.30;;
4323;SDS011;2175;51.018;6.994;2024-03-06T10:12:41;36.23;;;25.53;;
4323;SDS011;2175;51.018;6.994;2024-03-06T10:15:07;36.70;;;24.93;;
4323;SDS011;2175;51.018;6.994;2024-03-06T10:17:37;44.33;;;27.90;;
4323;SDS011;2175;51.018;6.994;2024-03-06T10:22:47;39.37;;;27.57;;
4323;SDS011;2175;51.018;6.994;2024-03-06T10:25:13;38.73;;;26.73;;
4323;SDS011;2175;51.018;6.994;2024-03-06T10:27:39;38.83;;;25.77;;
4323;SDS011;2175;51.018;6.994;2024-03-06T10:30:05;39.70;;;25.40;;
4323;SDS011;2175;51.018;6.994;2024-03-06T10:32:36;37.00;;;26.87;;
4323;SDS011;2175;51.018;6.994;2024-03-06T10:35:02;39.87;;;26.57;;
4323;SDS011;2175;51.018;6.994;2024-03-06T10:37:28;44.93;;;27.20;;
4323;SDS011;2175;51.018;6.994;2024-03-06T10:39:54;42.37;;;27.00;;
4323;SDS011;2175;51.018;6.994;2024-03-06T10:42:23;38.90;;;27.27;;
4323;SDS011;2175;51.018;6.994;2024-03-06T10:44:51;44.20;;;28.10;;
4323;SDS011;2175;51.018;6.994;2024-03-06T10:47:19;44.07;;;30.00;;
4323;SDS011;2175;51.018;6.994;2024-03-06T10:49:45;41.23;;;27.77;;
4323;SDS011;2175;51.018;6.994;2024-03-06T10:52:11;43.50;;;30.03;;
4323;SDS011;2175;51.018;6.994;2024-03-06T10:54:37;46.50;;;29.10;;
4323;SDS011;2175;51.018;6.994;2024-03-06T10:57:06;48.50;;;29.30;;
4323;SDS011;2175;51.018;6.994;2024-03-06T10:59:34;50.60;;;31.43;;
4323;SDS011;2175;51.018;6.994;2024-03-06T11:02:00;45.00;;;29.60;;
4323;SDS011;2175;51.018;6.994;2024-03-06T11:04:27;51.20;;;32.27;;
4323;SDS011;2175;51.018;6.994;2024-03-06T11:06:54;43.50;;;32.30;;
4323;SDS011;2175;51.018;6.994;2024-03-06T11:09:20;46.50;;;31.40;;
4323;SDS011;2175;51.018;6.994;2024-03-06T11:11:50;49.10;;;33.63;;
4323;SDS011;2175;51.018;6.994;2024-03-06T11:14:17;44.60;;;31.50;;
4323;SDS011;2175;51.018;6.994;2024-03-06T11:19:31;42.57;;;30.00;;
4323;SDS011;2175;51.018;6.994;2024-03-06T11:21:57;47.90;;;31.60;;
4323;SDS011;2175;51.018;6.994;2024-03-06T11:24:31;42.77;;;29.90;;
4323;SDS011;2175;51.018;6.994;2024-03-06T11:27:01;43.87;;;29.37;;
4323;SDS011;2175;51.018;6.994;2024-03-06T11:30:12;46.60;;;32.33;;
4323;SDS011;2175;51.018;6.994;2024-03-06T11:32:13;43.40;;;30.10;;
4323;SDS011;2175;51.018;6.994;2024-03-06T11:34:39;43.33;;;28.93;;
4323;SDS011;2175;51.018;6.994;2024-03-06T11:37:06;43.40;;;29.03;;
4323;SDS011;2175;51.018;6.994;2024-03-06T11:39:34;45.00;;;31.07;;
4323;SDS011;2175;51.018;6.994;2024-03-06T11:42:02;49.50;;;31.27;;
4323;SDS011;2175;51.018;6.994;2024-03-06T11:44:29;44.63;;;30.00;;
4323;SDS011;2175;51.018;6.994;2024-03-06T11:46:57;44.30;;;29.60;;
4323;SDS011;2175;51.018;6.994;2024-03-06T11:49:24;47.50;;;29.53;;
4323;SDS011;2175;51.018;6.994;2024-03-06T11:51:54;41.53;;;29.03;;
4323;SDS011;2175;51.018;6.994;2024-03-06T11:54:20;45.23;;;28.63;;
4323;SDS011;2175;51.018;6.994;2024-03-06T11:56:51;41.23;;;28.33;;
4323;SDS011;2175;51.018;6.994;2024-03-06T11:59:20;41.63;;;28.23;;
4323;SDS011;2175;51.018;6.994;2024-03-06T12:01:47;44.83;;;30.40;;
4323;SDS011;2175;51.018;6.994;2024-03-06T12:04:13;40.83;;;28.13;;
4323;SDS011;2175;51.018;6.994;2024-03-06T12:06:39;41.97;;;28.10;;
4323;SDS011;2175;51.018;6.994;2024-03-06T12:09:05;38.20;;;27.47;;
4323;SDS011;2175;51.018;6.994;2024-03-06T12:11:36;43.23;;;27.80;;
4323;SDS011;2175;51.018;6.994;2024-03-06T12:14:02;43.93;;;28.33;;
4323;SDS011;2175;51.018;6.994;2024-03-06T12:16:28;36.67;;;27.63;;
4323;SDS011;2175;51.018;6.994;2024-03-06T12:18:57;37.90;;;24.60;;
4323;SDS011;2175;51.018;6.994;2024-03-06T12:21:33;39.93;;;24.63;;
4323;SDS011;2175;51.018;6.994;2024-03-06T12:24:05;35.80;;;24.67;;
4323;SDS011;2175;51.018;6.994;2024-03-06T12:26:32;27.70;;;21.50;;
4323;SDS011;2175;51.018;6.994;2024-03-06T12:29:04;31.40;;;22.50;;
4323;SDS011;2175;51.018;6.994;2024-03-06T12:31:31;28.77;;;21.60;;
4323;SDS011;2175;51.018;6.994;2024-03-06T12:33:57;34.00;;;23.00;;
4323;SDS011;2175;51.018;6.994;2024-03-06T12:36:25;30.47;;;20.73;;
4323;SDS011;2175;51.018;6.994;2024-03-06T12:39:00;29.67;;;20.53;;
4323;SDS011;2175;51.018;6.994;2024-03-06T12:41:27;30.40;;;21.13;;
4323;SDS011;2175;51.018;6.994;2024-03-06T12:43:53;31.77;;;22.47;;
4323;SDS011;2175;51.018;6.994;2024-03-06T12:46:20;27.53;;;19.20;;
4323;SDS011;2175;51.018;6.994;2024-03-06T12:48:46;29.57;;;19.33;;
4323;SDS011;2175;51.018;6.994;2024-03-06T12:51:12;27.90;;;17.03;;
4323;SDS011;2175;51.018;6.994;2024-03-06T12:53:38;22.23;;;16.07;;
4323;SDS011;2175;51.018;6.994;2024-03-06T12:56:05;22.80;;;15.40;;
4323;SDS011;2175;51.018;6.994;2024-03-06T12:58:31;23.10;;;15.17;;
4323;SDS011;2175;51.018;6.994;2024-03-06T13:00:59;20.57;;;14.50;;
4323;SDS011;2175;51.018;6.994;2024-03-06T13:03:26;20.53;;;14.70;;
4323;SDS011;2175;51.018;6.994;2024-03-06T13:05:52;19.50;;;13.67;;
4323;SDS011;2175;51.018;6.994;2024-03-06T13:08:18;20.80;;;13.23;;
4323;SDS011;2175;51.018;6.994;2024-03-06T13:10:44;19.93;;;12.43;;
4323;SDS011;2175;51.018;6.994;2024-03-06T13:13:10;19.97;;;13.27;;
4323;SDS011;2175;51.018;6.994;2024-03-06T13:15:36;20.33;;;14.73;;
4323;SDS011;2175;51.018;6.994;2024-03-06T13:18:03;21.47;;;15.23;;
4323;SDS011;2175;51.018;6.994;2024-03-06T13:20:29;19.90;;;12.60;;
4323;SDS011;2175;51.018;6.994;2024-03-06T13:22:55;15.13;;;11.17;;
4323;SDS011;2175;51.018;6.994;2024-03-06T13:25:21;16.60;;;11.03;;
4323;SDS011;2175;51.018;6.994;2024-03-06T13:27:48;22.33;;;12.90;;
4323;SDS011;2175;51.018;6.994;2024-03-06T13:30:14;18.40;;;11.63;;
4323;SDS011;2175;51.018;6.994;2024-03-06T13:32:40;18.33;;;12.37;;
4323;SDS011;2175;51.018;6.994;2024-03-06T13:35:07;17.93;;;11.40;;
4323;SDS011;2175;51.018;6.994;2024-03-06T13:37:40;16.63;;;10.20;;
4323;SDS011;2175;51.018;6.994;2024-03-06T13:40:07;14.13;;;10.00;;
4323;SDS011;2175;51.018;6.994;2024-03-06T13:42:34;16.97;;;12.17;;
4323;SDS011;2175;51.018;6.994;2024-03-06T13:45:00;21.37;;;13.27;;
4323;SDS011;2175;51.018;6.994;2024-03-06T13:47:26;15.50;;;10.17;;
4323;SDS011;2175;51.018;6.994;2024-03-06T13:49:53;15.53;;;10.20;;
4323;SDS011;2175;51.018;6.994;2024-03-06T13:52:20;18.80;;;11.83;;
4323;SDS011;2175;51.018;6.994;2024-03-06T13:54:46;12.50;;;9.40;;
4323;SDS011;2175;51.018;6.994;2024-03-06T13:57:15;15.53;;;9.10;;
4323;SDS011;2175;51.018;6.994;2024-03-06T13:59:42;11.00;;;8.43;;
4323;SDS011;2175;51.018;6.994;2024-03-06T14:02:08;65.30;;;11.70;;
4323;SDS011;2175;51.018;6.994;2024-03-06T14:04:34;16.30;;;11.43;;
4323;SDS011;2175;51.018;6.994;2024-03-06T14:07:00;15.77;;;10.57;;
4323;SDS011;2175;51.018;6.994;2024-03-06T14:09:26;15.27;;;9.83;;
4323;SDS011;2175;51.018;6.994;2024-03-06T14:11:53;16.73;;;10.27;;
4323;SDS011;2175;51.018;6.994;2024-03-06T14:14:19;17.90;;;10.10;;
4323;SDS011;2175;51.018;6.994;2024-03-06T14:16:45;14.00;;;9.87;;
4323;SDS011;2175;51.018;6.994;2024-03-06T14:19:12;12.47;;;9.20;;
4323;SDS011;2175;51.018;6.994;2024-03-06T14:21:38;12.20;;;9.20;;
4323;SDS011;2175;51.018;6.994;2024-03-06T14:24:04;15.30;;;10.87;;
4323;SDS011;2175;51.018;6.994;2024-03-06T14:26:31;17.37;;;11.97;;
4323;SDS011;2175;51.018;6.994;2024-03-06T14:28:57;17.00;;;12.00;;
4323;SDS011;2175;51.018;6.994;2024-03-06T14:31:23;14.43;;;10.20;;
4323;SDS011;2175;51.018;6.994;2024-03-06T14:33:49;15.20;;;10.30;;
4323;SDS011;2175;51.018;6.994;2024-03-06T14:36:16;16.27;;;10.37;;
4323;SDS011;2175;51.018;6.994;2024-03-06T14:38:42;15.30;;;10.73;;
4323;SDS011;2175;51.018;6.994;2024-03-06T14:41:09;16.83;;;11.70;;
4323;SDS011;2175;51.018;6.994;2024-03-06T14:43:35;16.10;;;10.87;;
4323;SDS011;2175;51.018;6.994;2024-03-06T14:46:04;13.27;;;8.47;;
4323;SDS011;2175;51.018;6.994;2024-03-06T14:48:30;12.53;;;8.80;;
4323;SDS011;2175;51.018;6.994;2024-03-06T14:50:56;15.00;;;8.63;;